Time;durP1;ratioP1;P1;durP2;ratioP2;P2;SDS_P1;SDS_P2;PMS_P1;PMS_P2;Temp;Humidity;BMP_temperature;BMP_pressure;BME280_temperature;BME280_humidity;BME280_pressure;Samples;Min_cycle;Max_cycle;Signal;HPM_P1;HPM_P2
2022/09/20 00:07:17;;;;;;;7.6;10.6;;;;;;;10.2;89.1;98520;;;;
2022/09/20 00:17:17;;;;;;;8.6;12.1;;;;;;;10.3;89.4;98530;;;;
2022/09/20 00:27:17;;;;;;;8.6;12.1;;;;;;;10.2;89.6;98530;;;;
2022/09/20 00:37:17;;;;;;;8.6;12.1;;;;;;;10.2;89.6;98530;;;;
2022/09/20 00:48:17;;;;;;;12.1;15.3;;;;;;;10.2;89.8;98530;;;;
2022/09/20 00:59:17;;;;;;;12.1;15.3;;;;;;;10.3;89.9;98530;;;;
2022/09/20 01:10:17;;;;;;;12.1;15.3;;;;;;;10.3;89.8;98520;;;;
2022/09/20 01:21:17;;;;;;;14;17.9;;;;;;;10.4;89.8;98520;;;;
2022/09/20 01:31:17;;;;;;;14;17.9;;;;;;;10.4;89.7;98520;;;;
2022/09/20 01:42:17;;;;;;;14;17.9;;;;;;;10.5;89.7;98520;;;;
2022/09/20 01:52:17;;;;;;;13.9;19;;;;;;;10.5;89.5;98520;;;;
2022/09/20 02:02:17;;;;;;;13.9;19;;;;;;;10.5;89.5;98530;;;;
2022/09/20 02:12:17;;;;;;;13.9;19;;;;;;;10.5;89.4;98530;;;;
2022/09/20 02:23:17;;;;;;;12.9;17.3;;;;;;;10.5;89.2;98540;;;;
2022/09/20 02:34:17;;;;;;;12.9;17.3;;;;;;;10.4;89;98540;;;;
2022/09/20 02:44:17;;;;;;;14.2;17.5;;;;;;;10.4;89.2;98550;;;;
2022/09/20 02:54:17;;;;;;;14.2;17.5;;;;;;;10.4;89;98560;;;;
2022/09/20 03:05:17;;;;;;;14.2;17.5;;;;;;;10.4;89;98560;;;;
2022/09/20 03:15:17;;;;;;;14.9;18.3;;;;;;;10.4;89;98560;;;;
2022/09/20 03:26:17;;;;;;;14.9;18.3;;;;;;;10.5;88.9;98570;;;;
2022/09/20 03:37:17;;;;;;;14.9;18.3;;;;;;;10.5;88.9;98580;;;;
2022/09/20 03:47:17;;;;;;;15.9;20;;;;;;;10.4;89;98570;;;;
2022/09/20 03:58:17;;;;;;;15.9;20;;;;;;;10.5;88.8;98580;;;;
2022/09/20 04:09:17;;;;;;;15.9;20;;;;;;;10.4;88.9;98590;;;;
2022/09/20 04:20:19;;;;;;;12.7;15.4;;;;;;;10.4;88.8;98600;;;;
2022/09/20 04:30:17;;;;;;;12.7;15.4;;;;;;;10.5;88.7;98610;;;;
2022/09/20 04:40:17;;;;;;;12.7;15.4;;;;;;;10.5;88.9;98620;;;;
2022/09/20 04:51:17;;;;;;;12.8;15.5;;;;;;;10.5;88.9;98610;;;;
2022/09/20 05:02:17;;;;;;;12.8;15.5;;;;;;;10.6;88.6;98620;;;;
2022/09/20 05:12:17;;;;;;;12.8;15.5;;;;;;;10.5;88.3;98630;;;;
2022/09/20 05:23:17;;;;;;;14.3;18.5;;;;;;;10.6;88.1;98630;;;;
2022/09/20 05:34:17;;;;;;;14.3;18.5;;;;;;;10.6;87.7;98640;;;;
2022/09/20 05:45:17;;;;;;;15.8;18.8;;;;;;;10.7;87.3;98650;;;;
2022/09/20 05:56:17;;;;;;;15.8;18.8;;;;;;;10.7;87.3;98650;;;;
2022/09/20 06:06:17;;;;;;;15.8;18.8;;;;;;;10.7;87;98660;;;;
2022/09/20 06:17:17;;;;;;;11.1;14.7;;;;;;;10.9;86.9;98670;;;;
2022/09/20 06:28:17;;;;;;;11.1;14.7;;;;;;;11;86.4;98670;;;;
2022/09/20 06:49:17;;;;;;;11.6;14.3;;;;;;;11;85.8;98680;;;;
2022/09/20 07:00:17;;;;;;;11.6;14.3;;;;;;;11.1;85.5;98690;;;;
2022/09/20 07:10:17;;;;;;;11.6;14.3;;;;;;;11.3;84.7;98700;;;;
2022/09/20 07:21:17;;;;;;;14.7;17.1;;;;;;;11.5;84.3;98720;;;;
2022/09/20 07:32:17;;;;;;;14.7;17.1;;;;;;;11.5;83.6;98730;;;;
2022/09/20 07:42:17;;;;;;;11.9;16.7;;;;;;;11.6;83.3;98740;;;;
2022/09/20 07:53:17;;;;;;;11.9;16.7;;;;;;;11.8;82.5;98750;;;;
2022/09/20 08:04:17;;;;;;;11.9;16.7;;;;;;;11.8;81.9;98760;;;;
2022/09/20 08:15:17;;;;;;;10.9;14.5;;;;;;;12.4;80.8;98760;;;;
2022/09/20 08:25:17;;;;;;;10.9;14.5;;;;;;;12.7;78.3;98760;;;;
2022/09/20 08:35:17;;;;;;;10.9;14.5;;;;;;;12.8;78;98770;;;;
2022/09/20 08:46:17;;;;;;;10.1;14;;;;;;;12.8;77.5;98780;;;;
2022/09/20 08:57:17;;;;;;;10.1;14;;;;;;;13;76.1;98780;;;;
2022/09/20 09:07:18;;;;;;;10.1;14;;;;;;;13.4;74.5;98780;;;;
2022/09/20 09:17:17;;;;;;;8;12.5;;;;;;;13.8;74.7;98770;;;;
2022/09/20 09:28:17;;;;;;;8;12.5;;;;;;;13.8;72;98770;;;;
2022/09/20 09:38:17;;;;;;;8;12.5;;;;;;;14.3;72.6;98760;;;;
2022/09/20 09:48:17;;;;;;;7.1;8.9;;;;;;;14.1;71.8;98750;;;;
2022/09/20 09:59:17;;;;;;;7.1;8.9;;;;;;;14.7;70.7;98740;;;;
2022/09/20 10:09:17;;;;;;;7.1;8.9;;;;;;;14.6;69.4;98740;;;;
2022/09/20 10:20:17;;;;;;;6.9;10.6;;;;;;;14.2;71;98740;;;;
2022/09/20 10:31:17;;;;;;;6.9;10.6;;;;;;;14.3;72.4;98750;;;;
2022/09/20 10:51:17;;;;;;;8.9;12.6;;;;;;;14.3;74.5;98750;;;;
2022/09/20 11:01:17;;;;;;;8.9;12.6;;;;;;;15;73.8;98750;;;;
2022/09/20 11:12:17;;;;;;;9.9;12.5;;;;;;;15.1;73.1;98750;;;;
2022/09/20 11:22:17;;;;;;;9.9;12.5;;;;;;;15.2;68.8;98740;;;;
2022/09/20 11:33:17;;;;;;;9.9;12.5;;;;;;;14.8;68.5;98740;;;;
2022/09/20 11:43:17;;;;;;;5.8;8.3;;;;;;;15.2;68.5;98740;;;;
2022/09/20 11:54:17;;;;;;;5.8;8.3;;;;;;;15.1;68.2;98740;;;;
2022/09/20 12:04:17;;;;;;;5.8;8.3;;;;;;;14.9;66.8;98750;;;;
2022/09/20 12:15:17;;;;;;;5;8.2;;;;;;;14;71.6;98750;;;;
2022/09/20 12:25:17;;;;;;;5;8.2;;;;;;;14.4;69.9;98740;;;;
2022/09/20 12:35:17;;;;;;;5;8.2;;;;;;;15;66.3;98730;;;;
2022/09/20 12:46:17;;;;;;;3.8;7.1;;;;;;;15.1;63.1;98720;;;;
2022/09/20 12:57:17;;;;;;;3.8;7.1;;;;;;;14.9;63.1;98730;;;;
2022/09/20 13:07:17;;;;;;;3.8;7.1;;;;;;;15.1;62;98730;;;;
2022/09/20 13:18:17;;;;;;;1.9;3.8;;;;;;;14.3;69.3;98760;;;;
2022/09/20 13:28:17;;;;;;;1.9;3.8;;;;;;;13.7;68.8;98760;;;;
2022/09/20 13:39:17;;;;;;;1.9;3.8;;;;;;;14.5;69.2;98780;;;;
2022/09/20 13:49:19;;;;;;;2.6;5.4;;;;;;;14.1;67.7;98770;;;;
2022/09/20 13:59:18;;;;;;;2.6;5.4;;;;;;;13.9;68.9;98770;;;;
2022/09/20 14:10:17;;;;;;;2.6;5.4;;;;;;;13.9;68.6;98760;;;;
2022/09/20 14:21:17;;;;;;;3.6;6.9;;;;;;;13.8;68;98760;;;;
2022/09/20 14:32:17;;;;;;;3.6;6.9;;;;;;;13.5;70.2;98770;;;;
2022/09/20 14:42:17;;;;;;;3.4;6.2;;;;;;;13.3;71.7;98780;;;;
2022/09/20 14:53:17;;;;;;;3.4;6.2;;;;;;;12.9;73;98790;;;;
2022/09/20 15:04:17;;;;;;;3.4;6.2;;;;;;;12.8;74.7;98790;;;;
2022/09/20 15:14:17;;;;;;;3.6;5.3;;;;;;;12.5;75.1;98800;;;;
2022/09/20 15:25:17;;;;;;;3.6;5.3;;;;;;;12.3;75.3;98810;;;;
2022/09/20 15:35:17;;;;;;;3.6;5.3;;;;;;;12.3;74.9;98810;;;;
2022/09/20 15:46:17;;;;;;;2.9;6;;;;;;;13.3;73.5;98820;;;;
2022/09/20 15:56:18;;;;;;;2.9;6;;;;;;;16;63.2;98810;;;;
2022/09/20 16:07:17;;;;;;;2.9;6;;;;;;;14.3;67.1;98820;;;;
2022/09/20 16:17:17;;;;;;;2.4;4.5;;;;;;;13.5;69.3;98830;;;;
2022/09/20 16:27:17;;;;;;;2.4;4.5;;;;;;;12.7;71.4;98840;;;;
2022/09/20 16:38:17;;;;;;;2.4;4.5;;;;;;;12;72.5;98860;;;;
2022/09/20 16:48:17;;;;;;;3.8;5.9;;;;;;;11.5;75.3;98880;;;;
2022/09/20 16:59:17;;;;;;;3.8;5.9;;;;;;;11.3;77;98890;;;;
2022/09/20 17:10:17;;;;;;;3.8;5.9;;;;;;;11.2;78.8;98910;;;;
2022/09/20 17:21:17;;;;;;;6;9.8;;;;;;;11.1;80.2;98920;;;;
2022/09/20 17:31:17;;;;;;;6;9.8;;;;;;;11.2;80.4;98940;;;;
2022/09/20 17:41:17;;;;;;;6;9.8;;;;;;;11.1;81.2;98950;;;;
2022/09/20 17:51:17;;;;;;;8.7;11.4;;;;;;;11.2;81.6;98960;;;;
2022/09/20 18:02:17;;;;;;;8.7;11.4;;;;;;;11.1;81.7;98960;;;;
2022/09/20 18:13:17;;;;;;;9.9;12.7;;;;;;;10.9;82.6;98960;;;;
2022/09/20 18:24:17;;;;;;;9.9;12.7;;;;;;;10.9;83;98970;;;;
2022/09/20 18:34:17;;;;;;;9.9;12.7;;;;;;;10.9;83.1;98980;;;;
2022/09/20 18:44:17;;;;;;;11.5;15.9;;;;;;;10.9;83;98990;;;;
2022/09/20 18:55:18;;;;;;;11.5;15.9;;;;;;;10.9;83.2;99000;;;;
2022/09/20 19:06:17;;;;;;;11.5;15.9;;;;;;;11;83.2;99010;;;;
2022/09/20 19:16:17;;;;;;;12.3;18.9;;;;;;;11;83.4;99020;;;;
2022/09/20 19:26:17;;;;;;;12.3;18.9;;;;;;;11;84;99030;;;;
2022/09/20 19:37:17;;;;;;;12.3;18.9;;;;;;;10.9;84.3;99030;;;;
2022/09/20 19:47:17;;;;;;;20;28.5;;;;;;;10.9;84.4;99030;;;;
2022/09/20 19:57:17;;;;;;;20;28.5;;;;;;;10.8;84.6;99040;;;;
2022/09/20 20:08:17;;;;;;;20;28.5;;;;;;;10.8;84.7;99050;;;;
2022/09/20 20:19:17;;;;;;;14.1;19.6;;;;;;;10.5;84.5;99050;;;;
2022/09/20 20:29:17;;;;;;;14.1;19.6;;;;;;;10.3;84.5;99060;;;;
2022/09/20 20:40:17;;;;;;;14.1;19.6;;;;;;;9.9;84.6;99060;;;;
2022/09/20 20:50:17;;;;;;;12.3;18.4;;;;;;;9.7;85.3;99070;;;;
2022/09/20 21:01:17;;;;;;;12.3;18.4;;;;;;;9.6;86.3;99060;;;;
2022/09/20 21:12:17;;;;;;;11.9;15.7;;;;;;;9.5;86.4;99060;;;;
2022/09/20 21:22:17;;;;;;;11.9;15.7;;;;;;;9.5;87.2;99050;;;;
2022/09/20 21:33:17;;;;;;;11.9;15.7;;;;;;;9.6;87.3;99060;;;;
2022/09/20 21:43:17;;;;;;;13.3;17.1;;;;;;;9.7;87.2;99070;;;;
2022/09/20 21:54:17;;;;;;;13.3;17.1;;;;;;;9.8;87.5;99070;;;;
2022/09/20 22:05:17;;;;;;;13.3;17.1;;;;;;;10;87.4;99080;;;;
2022/09/20 22:16:17;;;;;;;13.6;17.7;;;;;;;10.1;87.2;99080;;;;
2022/09/20 22:26:17;;;;;;;13.6;17.7;;;;;;;10.1;87.2;99080;;;;
2022/09/20 22:36:17;;;;;;;13.6;17.7;;;;;;;10.1;87.1;99080;;;;
2022/09/20 22:47:17;;;;;;;16.3;22.6;;;;;;;10.2;87;99080;;;;
2022/09/20 22:58:17;;;;;;;16.3;22.6;;;;;;;10.1;87;99080;;;;
2022/09/20 23:08:17;;;;;;;16.3;22.6;;;;;;;10.1;87;99080;;;;
2022/09/20 23:19:17;;;;;;;15.3;17.7;;;;;;;9.9;86.8;99080;;;;
2022/09/20 23:30:17;;;;;;;15.3;17.7;;;;;;;9.7;87.2;99090;;;;
2022/09/20 23:40:17;;;;;;;15.3;17.7;;;;;;;9.7;87.5;99090;;;;
2022/09/20 23:50:17;;;;;;;14.8;17.7;;;;;;;9.7;87.5;99090;;;;
